sensor_id;sensor_type;location;lat;lon;timestamp;P1;durP1;ratioP1;P2;durP2;ratioP2
19127;SDS011;9696;53.686;10.094;2022-07-29T00:01:02;1.93;;;1.20;;
19127;SDS011;9696;53.686;10.094;2022-07-29T00:03:31;5.37;;;1.20;;
19127;SDS011;9696;53.686;10.094;2022-07-29T00:05:59;1.83;;;1.27;;
19127;SDS011;9696;53.686;10.094;2022-07-29T00:08:28;2.73;;;0.80;;
19127;SDS011;9696;53.686;10.094;2022-07-29T00:10:56;1.10;;;0.90;;
19127;SDS011;9696;53.686;10.094;2022-07-29T00:13:25;3.50;;;1.30;;
19127;SDS011;9696;53.686;10.094;2022-07-29T00:15:57;3.23;;;1.30;;
19127;SDS011;9696;53.686;10.094;2022-07-29T00:18:31;1.47;;;1.30;;
19127;SDS011;9696;53.686;10.094;2022-07-29T00:21:00;4.40;;;1.60;;
19127;SDS011;9696;53.686;10.094;2022-07-29T00:23:28;4.40;;;1.47;;
19127;SDS011;9696;53.686;10.094;2022-07-29T00:26:02;7.03;;;2.03;;
19127;SDS011;9696;53.686;10.094;2022-07-29T00:28:30;4.33;;;1.83;;
19127;SDS011;9696;53.686;10.094;2022-07-29T00:30:59;2.83;;;1.50;;
19127;SDS011;9696;53.686;10.094;2022-07-29T00:33:28;8.33;;;1.33;;
19127;SDS011;9696;53.686;10.094;2022-07-29T00:35:58;3.27;;;1.00;;
19127;SDS011;9696;53.686;10.094;2022-07-29T00:38:25;3.03;;;1.53;;
19127;SDS011;9696;53.686;10.094;2022-07-29T00:40:53;2.97;;;1.50;;
19127;SDS011;9696;53.686;10.094;2022-07-29T00:43:22;2.33;;;1.17;;
19127;SDS011;9696;53.686;10.094;2022-07-29T00:45:50;2.70;;;1.10;;
19127;SDS011;9696;53.686;10.094;2022-07-29T00:48:19;5.00;;;1.37;;
19127;SDS011;9696;53.686;10.094;2022-07-29T00:50:48;4.90;;;1.30;;
19127;SDS011;9696;53.686;10.094;2022-07-29T00:53:18;11.70;;;1.30;;
19127;SDS011;9696;53.686;10.094;2022-07-29T00:55:47;6.77;;;1.40;;
19127;SDS011;9696;53.686;10.094;2022-07-29T00:58:17;8.67;;;1.53;;
19127;SDS011;9696;53.686;10.094;2022-07-29T01:00:46;4.30;;;1.30;;
19127;SDS011;9696;53.686;10.094;2022-07-29T01:03:14;4.37;;;1.30;;
19127;SDS011;9696;53.686;10.094;2022-07-29T01:05:43;6.23;;;1.50;;
19127;SDS011;9696;53.686;10.094;2022-07-29T01:08:16;1.97;;;1.20;;
19127;SDS011;9696;53.686;10.094;2022-07-29T01:10:46;3.03;;;1.20;;
19127;SDS011;9696;53.686;10.094;2022-07-29T01:13:15;2.27;;;1.20;;
19127;SDS011;9696;53.686;10.094;2022-07-29T01:15:45;1.50;;;1.23;;
19127;SDS011;9696;53.686;10.094;2022-07-29T01:18:18;1.87;;;1.40;;
19127;SDS011;9696;53.686;10.094;2022-07-29T01:20:55;8.10;;;1.30;;
19127;SDS011;9696;53.686;10.094;2022-07-29T01:23:44;2.60;;;1.30;;
19127;SDS011;9696;53.686;10.094;2022-07-29T01:26:41;2.10;;;1.67;;
19127;SDS011;9696;53.686;10.094;2022-07-29T01:29:18;3.57;;;1.17;;
19127;SDS011;9696;53.686;10.094;2022-07-29T01:31:51;10.00;;;1.83;;
19127;SDS011;9696;53.686;10.094;2022-07-29T01:34:30;2.47;;;1.30;;
19127;SDS011;9696;53.686;10.094;2022-07-29T01:37:07;2.37;;;1.33;;
19127;SDS011;9696;53.686;10.094;2022-07-29T01:39:38;2.10;;;1.30;;
19127;SDS011;9696;53.686;10.094;2022-07-29T01:42:09;12.37;;;1.83;;
19127;SDS011;9696;53.686;10.094;2022-07-29T01:44:45;5.97;;;1.17;;
19127;SDS011;9696;53.686;10.094;2022-07-29T01:47:19;5.50;;;1.43;;
19127;SDS011;9696;53.686;10.094;2022-07-29T01:49:51;6.13;;;1.80;;
19127;SDS011;9696;53.686;10.094;2022-07-29T01:52:21;1.87;;;1.40;;
19127;SDS011;9696;53.686;10.094;2022-07-29T01:54:54;2.80;;;1.43;;
19127;SDS011;9696;53.686;10.094;2022-07-29T01:57:25;5.43;;;1.20;;
19127;SDS011;9696;53.686;10.094;2022-07-29T01:59:56;6.10;;;1.57;;
19127;SDS011;9696;53.686;10.094;2022-07-29T02:02:26;3.63;;;1.60;;
19127;SDS011;9696;53.686;10.094;2022-07-29T02:04:56;3.17;;;1.67;;
19127;SDS011;9696;53.686;10.094;2022-07-29T02:07:25;4.27;;;1.63;;
19127;SDS011;9696;53.686;10.094;2022-07-29T02:09:56;18.00;;;1.70;;
19127;SDS011;9696;53.686;10.094;2022-07-29T02:12:26;6.40;;;1.60;;
19127;SDS011;9696;53.686;10.094;2022-07-29T02:14:58;2.73;;;1.30;;
19127;SDS011;9696;53.686;10.094;2022-07-29T02:17:29;3.90;;;1.47;;
19127;SDS011;9696;53.686;10.094;2022-07-29T02:20:06;3.80;;;1.50;;
19127;SDS011;9696;53.686;10.094;2022-07-29T02:22:37;5.83;;;1.60;;
19127;SDS011;9696;53.686;10.094;2022-07-29T02:25:06;4.40;;;1.53;;
19127;SDS011;9696;53.686;10.094;2022-07-29T02:27:39;4.67;;;1.53;;
19127;SDS011;9696;53.686;10.094;2022-07-29T02:30:10;2.47;;;1.67;;
19127;SDS011;9696;53.686;10.094;2022-07-29T02:32:40;5.03;;;1.60;;
19127;SDS011;9696;53.686;10.094;2022-07-29T02:35:12;4.67;;;1.40;;
19127;SDS011;9696;53.686;10.094;2022-07-29T02:37:41;7.13;;;1.57;;
19127;SDS011;9696;53.686;10.094;2022-07-29T02:40:32;4.73;;;2.07;;
19127;SDS011;9696;53.686;10.094;2022-07-29T02:43:01;5.93;;;2.03;;
19127;SDS011;9696;53.686;10.094;2022-07-29T02:45:32;2.90;;;1.60;;
19127;SDS011;9696;53.686;10.094;2022-07-29T02:48:03;3.43;;;1.60;;
19127;SDS011;9696;53.686;10.094;2022-07-29T02:50:34;9.13;;;1.77;;
19127;SDS011;9696;53.686;10.094;2022-07-29T02:53:05;2.00;;;1.47;;
19127;SDS011;9696;53.686;10.094;2022-07-29T02:55:37;2.93;;;1.60;;
19127;SDS011;9696;53.686;10.094;2022-07-29T02:58:09;7.20;;;1.90;;
19127;SDS011;9696;53.686;10.094;2022-07-29T03:00:43;8.10;;;2.00;;
19127;SDS011;9696;53.686;10.094;2022-07-29T03:03:15;4.97;;;1.73;;
19127;SDS011;9696;53.686;10.094;2022-07-29T03:05:44;3.47;;;1.97;;
19127;SDS011;9696;53.686;10.094;2022-07-29T03:08:13;5.10;;;1.53;;
19127;SDS011;9696;53.686;10.094;2022-07-29T03:10:44;5.30;;;1.53;;
19127;SDS011;9696;53.686;10.094;2022-07-29T03:13:13;4.40;;;1.40;;
19127;SDS011;9696;53.686;10.094;2022-07-29T03:15:44;2.63;;;1.40;;
19127;SDS011;9696;53.686;10.094;2022-07-29T03:18:13;3.37;;;1.50;;
19127;SDS011;9696;53.686;10.094;2022-07-29T03:20:42;4.73;;;1.77;;
19127;SDS011;9696;53.686;10.094;2022-07-29T03:23:11;2.80;;;1.50;;
19127;SDS011;9696;53.686;10.094;2022-07-29T03:25:39;5.00;;;1.50;;
19127;SDS011;9696;53.686;10.094;2022-07-29T03:28:08;4.90;;;1.30;;
19127;SDS011;9696;53.686;10.094;2022-07-29T03:30:36;3.67;;;1.40;;
19127;SDS011;9696;53.686;10.094;2022-07-29T03:33:11;3.03;;;1.80;;
19127;SDS011;9696;53.686;10.094;2022-07-29T03:35:39;5.43;;;2.13;;
19127;SDS011;9696;53.686;10.094;2022-07-29T03:38:08;4.87;;;1.87;;
19127;SDS011;9696;53.686;10.094;2022-07-29T03:40:38;3.77;;;1.60;;
19127;SDS011;9696;53.686;10.094;2022-07-29T03:43:08;5.30;;;1.50;;
19127;SDS011;9696;53.686;10.094;2022-07-29T03:45:38;5.60;;;1.63;;
19127;SDS011;9696;53.686;10.094;2022-07-29T03:48:08;7.63;;;2.10;;
19127;SDS011;9696;53.686;10.094;2022-07-29T03:50:40;12.83;;;1.87;;
19127;SDS011;9696;53.686;10.094;2022-07-29T03:53:08;7.77;;;1.60;;
19127;SDS011;9696;53.686;10.094;2022-07-29T03:55:40;4.00;;;1.70;;
19127;SDS011;9696;53.686;10.094;2022-07-29T03:58:10;5.57;;;1.77;;
19127;SDS011;9696;53.686;10.094;2022-07-29T04:00:41;4.30;;;1.93;;
19127;SDS011;9696;53.686;10.094;2022-07-29T04:03:11;4.53;;;1.77;;
19127;SDS011;9696;53.686;10.094;2022-07-29T04:05:41;3.83;;;1.77;;
19127;SDS011;9696;53.686;10.094;2022-07-29T04:08:09;7.90;;;1.57;;
19127;SDS011;9696;53.686;10.094;2022-07-29T04:10:38;6.10;;;1.73;;
19127;SDS011;9696;53.686;10.094;2022-07-29T04:13:06;4.00;;;1.50;;
19127;SDS011;9696;53.686;10.094;2022-07-29T04:15:34;3.10;;;1.70;;
19127;SDS011;9696;53.686;10.094;2022-07-29T04:18:03;3.97;;;1.57;;
19127;SDS011;9696;53.686;10.094;2022-07-29T04:20:33;8.03;;;2.00;;
19127;SDS011;9696;53.686;10.094;2022-07-29T04:23:02;6.27;;;1.60;;
19127;SDS011;9696;53.686;10.094;2022-07-29T04:25:30;6.17;;;1.70;;
19127;SDS011;9696;53.686;10.094;2022-07-29T04:27:59;5.50;;;1.80;;
19127;SDS011;9696;53.686;10.094;2022-07-29T04:30:27;3.10;;;1.70;;
19127;SDS011;9696;53.686;10.094;2022-07-29T04:32:56;4.93;;;1.73;;
19127;SDS011;9696;53.686;10.094;2022-07-29T04:35:26;5.70;;;1.70;;
19127;SDS011;9696;53.686;10.094;2022-07-29T04:37:56;4.67;;;1.57;;
19127;SDS011;9696;53.686;10.094;2022-07-29T04:40:25;3.53;;;1.63;;
19127;SDS011;9696;53.686;10.094;2022-07-29T04:42:53;6.13;;;2.00;;
19127;SDS011;9696;53.686;10.094;2022-07-29T04:45:25;4.17;;;1.53;;
19127;SDS011;9696;53.686;10.094;2022-07-29T04:47:54;3.87;;;1.73;;
19127;SDS011;9696;53.686;10.094;2022-07-29T04:50:22;3.90;;;1.67;;
19127;SDS011;9696;53.686;10.094;2022-07-29T04:52:51;5.97;;;1.67;;
19127;SDS011;9696;53.686;10.094;2022-07-29T04:55:21;5.90;;;1.87;;
19127;SDS011;9696;53.686;10.094;2022-07-29T04:57:49;2.50;;;1.50;;
19127;SDS011;9696;53.686;10.094;2022-07-29T05:00:18;5.47;;;2.00;;
19127;SDS011;9696;53.686;10.094;2022-07-29T05:02:53;4.57;;;1.97;;
19127;SDS011;9696;53.686;10.094;2022-07-29T05:05:22;6.57;;;1.63;;
19127;SDS011;9696;53.686;10.094;2022-07-29T05:07:50;6.00;;;2.00;;
19127;SDS011;9696;53.686;10.094;2022-07-29T05:10:20;6.50;;;1.80;;
19127;SDS011;9696;53.686;10.094;2022-07-29T05:12:49;4.17;;;1.97;;
19127;SDS011;9696;53.686;10.094;2022-07-29T05:15:17;3.43;;;1.63;;
19127;SDS011;9696;53.686;10.094;2022-07-29T05:17:46;6.13;;;1.80;;
19127;SDS011;9696;53.686;10.094;2022-07-29T05:20:14;4.93;;;1.83;;
19127;SDS011;9696;53.686;10.094;2022-07-29T05:22:44;6.17;;;1.57;;
19127;SDS011;9696;53.686;10.094;2022-07-29T05:25:12;6.30;;;1.67;;
19127;SDS011;9696;53.686;10.094;2022-07-29T05:27:42;5.80;;;1.83;;
19127;SDS011;9696;53.686;10.094;2022-07-29T05:30:11;3.53;;;1.90;;
19127;SDS011;9696;53.686;10.094;2022-07-29T05:32:40;5.60;;;2.00;;
19127;SDS011;9696;53.686;10.094;2022-07-29T05:35:08;15.47;;;1.90;;
19127;SDS011;9696;53.686;10.094;2022-07-29T05:37:37;3.40;;;1.63;;
19127;SDS011;9696;53.686;10.094;2022-07-29T05:40:06;9.73;;;1.90;;
19127;SDS011;9696;53.686;10.094;2022-07-29T05:42:35;2.77;;;1.30;;
19127;SDS011;9696;53.686;10.094;2022-07-29T05:45:05;5.03;;;1.73;;
19127;SDS011;9696;53.686;10.094;2022-07-29T05:47:34;2.97;;;1.73;;
19127;SDS011;9696;53.686;10.094;2022-07-29T05:50:03;2.40;;;1.40;;
19127;SDS011;9696;53.686;10.094;2022-07-29T05:52:32;4.10;;;1.53;;
19127;SDS011;9696;53.686;10.094;2022-07-29T05:55:00;4.25;;;1.55;;
19127;SDS011;9696;53.686;10.094;2022-07-29T05:57:31;4.05;;;1.80;;
19127;SDS011;9696;53.686;10.094;2022-07-29T05:59:59;5.60;;;1.70;;
19127;SDS011;9696;53.686;10.094;2022-07-29T06:02:29;3.40;;;1.40;;
19127;SDS011;9696;53.686;10.094;2022-07-29T06:04:58;5.68;;;1.50;;
19127;SDS011;9696;53.686;10.094;2022-07-29T06:07:26;4.00;;;1.23;;
19127;SDS011;9696;53.686;10.094;2022-07-29T06:09:59;12.30;;;1.40;;
19127;SDS011;9696;53.686;10.094;2022-07-29T06:12:27;12.00;;;1.63;;
19127;SDS011;9696;53.686;10.094;2022-07-29T06:14:56;4.35;;;1.55;;
19127;SDS011;9696;53.686;10.094;2022-07-29T06:17:24;5.05;;;1.85;;
19127;SDS011;9696;53.686;10.094;2022-07-29T06:19:54;4.88;;;1.58;;
19127;SDS011;9696;53.686;10.094;2022-07-29T06:22:22;4.05;;;1.73;;
19127;SDS011;9696;53.686;10.094;2022-07-29T06:24:51;3.63;;;1.48;;
19127;SDS011;9696;53.686;10.094;2022-07-29T06:27:20;3.65;;;1.50;;
19127;SDS011;9696;53.686;10.094;2022-07-29T06:29:48;7.85;;;1.30;;
19127;SDS011;9696;53.686;10.094;2022-07-29T06:32:16;4.40;;;1.13;;
19127;SDS011;9696;53.686;10.094;2022-07-29T06:34:48;3.40;;;1.45;;
19127;SDS011;9696;53.686;10.094;2022-07-29T06:37:18;1.38;;;0.93;;
19127;SDS011;9696;53.686;10.094;2022-07-29T06:39:49;3.97;;;1.33;;
19127;SDS011;9696;53.686;10.094;2022-07-29T06:42:41;5.30;;;1.60;;
19127;SDS011;9696;53.686;10.094;2022-07-29T06:45:10;3.72;;;1.40;;
19127;SDS011;9696;53.686;10.094;2022-07-29T06:47:39;5.13;;;1.50;;
19127;SDS011;9696;53.686;10.094;2022-07-29T06:50:08;3.22;;;1.30;;
19127;SDS011;9696;53.686;10.094;2022-07-29T06:52:39;2.63;;;1.13;;
19127;SDS011;9696;53.686;10.094;2022-07-29T06:55:08;2.45;;;1.10;;
19127;SDS011;9696;53.686;10.094;2022-07-29T06:57:50;2.08;;;0.85;;
19127;SDS011;9696;53.686;10.094;2022-07-29T07:00:18;4.78;;;1.15;;
19127;SDS011;9696;53.686;10.094;2022-07-29T07:02:47;2.80;;;0.90;;
19127;SDS011;9696;53.686;10.094;2022-07-29T07:05:15;4.40;;;1.50;;
19127;SDS011;9696;53.686;10.094;2022-07-29T07:07:45;4.45;;;1.45;;
19127;SDS011;9696;53.686;10.094;2022-07-29T07:10:14;9.25;;;1.10;;
19127;SDS011;9696;53.686;10.094;2022-07-29T07:12:42;5.97;;;1.35;;
19127;SDS011;9696;53.686;10.094;2022-07-29T07:15:11;5.32;;;1.20;;
19127;SDS011;9696;53.686;10.094;2022-07-29T07:17:39;3.05;;;1.52;;
19127;SDS011;9696;53.686;10.094;2022-07-29T07:20:08;2.70;;;1.23;;
19127;SDS011;9696;53.686;10.094;2022-07-29T07:22:38;1.83;;;1.17;;
19127;SDS011;9696;53.686;10.094;2022-07-29T07:25:10;5.90;;;1.00;;
19127;SDS011;9696;53.686;10.094;2022-07-29T07:27:39;3.25;;;1.10;;
19127;SDS011;9696;53.686;10.094;2022-07-29T07:30:07;4.60;;;1.40;;
19127;SDS011;9696;53.686;10.094;2022-07-29T07:32:36;5.93;;;1.10;;
19127;SDS011;9696;53.686;10.094;2022-07-29T07:35:05;3.65;;;1.02;;
19127;SDS011;9696;53.686;10.094;2022-07-29T07:37:35;9.15;;;1.35;;
19127;SDS011;9696;53.686;10.094;2022-07-29T07:40:04;4.53;;;1.40;;
19127;SDS011;9696;53.686;10.094;2022-07-29T07:42:35;6.05;;;1.40;;
19127;SDS011;9696;53.686;10.094;2022-07-29T07:45:07;3.00;;;1.00;;
19127;SDS011;9696;53.686;10.094;2022-07-29T07:47:41;4.80;;;1.25;;
19127;SDS011;9696;53.686;10.094;2022-07-29T07:50:10;2.85;;;1.15;;
19127;SDS011;9696;53.686;10.094;2022-07-29T07:52:47;6.35;;;1.00;;
19127;SDS011;9696;53.686;10.094;2022-07-29T07:55:17;7.28;;;1.17;;
19127;SDS011;9696;53.686;10.094;2022-07-29T07:57:47;3.17;;;1.10;;
19127;SDS011;9696;53.686;10.094;2022-07-29T08:00:16;2.28;;;0.85;;
19127;SDS011;9696;53.686;10.094;2022-07-29T08:02:48;1.73;;;1.10;;
19127;SDS011;9696;53.686;10.094;2022-07-29T08:05:17;2.58;;;1.13;;
19127;SDS011;9696;53.686;10.094;2022-07-29T08:07:46;2.42;;;1.10;;
19127;SDS011;9696;53.686;10.094;2022-07-29T08:10:14;3.47;;;1.10;;
19127;SDS011;9696;53.686;10.094;2022-07-29T08:13:06;3.42;;;1.20;;
19127;SDS011;9696;53.686;10.094;2022-07-29T08:15:38;10.57;;;1.40;;
19127;SDS011;9696;53.686;10.094;2022-07-29T08:18:07;7.95;;;1.48;;
19127;SDS011;9696;53.686;10.094;2022-07-29T08:20:36;2.80;;;1.15;;
19127;SDS011;9696;53.686;10.094;2022-07-29T08:23:06;4.30;;;1.10;;
19127;SDS011;9696;53.686;10.094;2022-07-29T08:25:35;3.28;;;1.20;;
19127;SDS011;9696;53.686;10.094;2022-07-29T08:28:07;4.55;;;1.40;;
19127;SDS011;9696;53.686;10.094;2022-07-29T08:30:35;4.00;;;1.17;;
19127;SDS011;9696;53.686;10.094;2022-07-29T08:33:04;1.73;;;0.93;;
19127;SDS011;9696;53.686;10.094;2022-07-29T08:35:32;4.25;;;1.02;;
19127;SDS011;9696;53.686;10.094;2022-07-29T08:38:01;5.25;;;1.25;;
19127;SDS011;9696;53.686;10.094;2022-07-29T08:40:30;5.00;;;1.30;;
19127;SDS011;9696;53.686;10.094;2022-07-29T08:42:59;8.25;;;1.20;;
19127;SDS011;9696;53.686;10.094;2022-07-29T08:45:35;7.65;;;1.40;;
19127;SDS011;9696;53.686;10.094;2022-07-29T08:48:13;3.95;;;1.08;;
19127;SDS011;9696;53.686;10.094;2022-07-29T08:50:43;7.90;;;1.33;;
19127;SDS011;9696;53.686;10.094;2022-07-29T08:53:13;2.50;;;1.05;;
19127;SDS011;9696;53.686;10.094;2022-07-29T08:55:43;2.28;;;1.10;;
19127;SDS011;9696;53.686;10.094;2022-07-29T08:58:13;2.65;;;1.00;;
19127;SDS011;9696;53.686;10.094;2022-07-29T09:00:44;3.40;;;0.88;;
19127;SDS011;9696;53.686;10.094;2022-07-29T09:03:15;11.45;;;1.67;;
19127;SDS011;9696;53.686;10.094;2022-07-29T09:05:46;3.15;;;1.35;;
19127;SDS011;9696;53.686;10.094;2022-07-29T09:08:15;12.40;;;1.25;;
19127;SDS011;9696;53.686;10.094;2022-07-29T09:10:44;5.95;;;1.20;;
19127;SDS011;9696;53.686;10.094;2022-07-29T09:13:13;4.13;;;1.10;;
19127;SDS011;9696;53.686;10.094;2022-07-29T09:15:41;2.15;;;1.02;;
19127;SDS011;9696;53.686;10.094;2022-07-29T09:18:12;8.80;;;1.20;;
19127;SDS011;9696;53.686;10.094;2022-07-29T09:20:56;3.33;;;1.20;;
19127;SDS011;9696;53.686;10.094;2022-07-29T09:23:56;11.25;;;1.23;;
19127;SDS011;9696;53.686;10.094;2022-07-29T09:26:28;2.13;;;0.93;;
19127;SDS011;9696;53.686;10.094;2022-07-29T09:28:57;2.83;;;0.93;;
19127;SDS011;9696;53.686;10.094;2022-07-29T09:31:31;3.22;;;1.17;;
19127;SDS011;9696;53.686;10.094;2022-07-29T09:34:01;4.03;;;1.30;;
19127;SDS011;9696;53.686;10.094;2022-07-29T09:36:30;4.20;;;1.17;;
19127;SDS011;9696;53.686;10.094;2022-07-29T09:39:02;4.53;;;1.00;;
19127;SDS011;9696;53.686;10.094;2022-07-29T09:41:30;2.30;;;1.13;;
19127;SDS011;9696;53.686;10.094;2022-07-29T09:44:12;2.30;;;0.90;;
19127;SDS011;9696;53.686;10.094;2022-07-29T09:46:43;3.35;;;0.90;;
19127;SDS011;9696;53.686;10.094;2022-07-29T09:49:21;4.35;;;1.17;;
19127;SDS011;9696;53.686;10.094;2022-07-29T09:51:58;7.63;;;1.13;;
19127;SDS011;9696;53.686;10.094;2022-07-29T09:54:27;4.78;;;1.10;;
19127;SDS011;9696;53.686;10.094;2022-07-29T09:57:02;4.20;;;0.70;;
19127;SDS011;9696;53.686;10.094;2022-07-29T09:59:32;3.78;;;0.98;;
19127;SDS011;9696;53.686;10.094;2022-07-29T10:02:16;4.35;;;0.90;;
19127;SDS011;9696;53.686;10.094;2022-07-29T10:04:49;8.30;;;1.08;;
19127;SDS011;9696;53.686;10.094;2022-07-29T10:07:17;4.05;;;0.90;;
19127;SDS011;9696;53.686;10.094;2022-07-29T10:09:49;4.55;;;0.70;;
19127;SDS011;9696;53.686;10.094;2022-07-29T10:12:20;2.40;;;0.73;;
19127;SDS011;9696;53.686;10.094;2022-07-29T10:14:49;4.70;;;1.05;;
19127;SDS011;9696;53.686;10.094;2022-07-29T10:17:19;9.68;;;1.05;;
19127;SDS011;9696;53.686;10.094;2022-07-29T10:19:48;4.18;;;0.82;;
19127;SDS011;9696;53.686;10.094;2022-07-29T10:22:17;2.38;;;0.80;;
19127;SDS011;9696;53.686;10.094;2022-07-29T10:25:06;3.15;;;0.73;;
19127;SDS011;9696;53.686;10.094;2022-07-29T10:27:36;2.50;;;1.00;;
19127;SDS011;9696;53.686;10.094;2022-07-29T10:30:05;2.08;;;0.80;;
19127;SDS011;9696;53.686;10.094;2022-07-29T10:32:41;3.45;;;0.68;;
19127;SDS011;9696;53.686;10.094;2022-07-29T10:35:21;4.85;;;0.98;;
19127;SDS011;9696;53.686;10.094;2022-07-29T10:41:21;6.57;;;0.90;;
19127;SDS011;9696;53.686;10.094;2022-07-29T10:44:13;2.95;;;1.10;;
19127;SDS011;9696;53.686;10.094;2022-07-29T10:46:48;2.47;;;0.80;;
19127;SDS011;9696;53.686;10.094;2022-07-29T10:49:19;4.03;;;0.80;;
19127;SDS011;9696;53.686;10.094;2022-07-29T10:51:51;2.00;;;0.80;;
19127;SDS011;9696;53.686;10.094;2022-07-29T10:54:36;3.10;;;0.77;;
19127;SDS011;9696;53.686;10.094;2022-07-29T10:57:13;4.88;;;0.88;;
19127;SDS011;9696;53.686;10.094;2022-07-29T10:59:43;4.72;;;0.90;;
19127;SDS011;9696;53.686;10.094;2022-07-29T11:05:17;2.65;;;0.82;;
19127;SDS011;9696;53.686;10.094;2022-07-29T11:10:46;7.00;;;1.02;;
19127;SDS011;9696;53.686;10.094;2022-07-29T11:16:18;4.55;;;1.20;;
19127;SDS011;9696;53.686;10.094;2022-07-29T11:21:57;6.20;;;0.98;;
19127;SDS011;9696;53.686;10.094;2022-07-29T11:24:26;3.05;;;1.05;;
19127;SDS011;9696;53.686;10.094;2022-07-29T11:27:17;7.88;;;1.42;;
19127;SDS011;9696;53.686;10.094;2022-07-29T11:29:52;3.78;;;1.10;;
19127;SDS011;9696;53.686;10.094;2022-07-29T11:32:22;4.97;;;0.70;;
19127;SDS011;9696;53.686;10.094;2022-07-29T11:35:11;2.40;;;1.17;;
19127;SDS011;9696;53.686;10.094;2022-07-29T11:37:44;3.95;;;0.77;;
19127;SDS011;9696;53.686;10.094;2022-07-29T11:40:21;5.15;;;1.20;;
19127;SDS011;9696;53.686;10.094;2022-07-29T11:42:49;5.55;;;0.68;;
19127;SDS011;9696;53.686;10.094;2022-07-29T11:45:21;1.63;;;0.90;;
19127;SDS011;9696;53.686;10.094;2022-07-29T11:48:18;6.82;;;0.93;;
19127;SDS011;9696;53.686;10.094;2022-07-29T11:50:57;6.57;;;1.00;;
19127;SDS011;9696;53.686;10.094;2022-07-29T11:53:29;4.40;;;1.25;;
19127;SDS011;9696;53.686;10.094;2022-07-29T11:55:59;2.22;;;1.00;;
19127;SDS011;9696;53.686;10.094;2022-07-29T11:58:29;2.13;;;0.80;;
19127;SDS011;9696;53.686;10.094;2022-07-29T12:00:57;2.42;;;0.90;;
19127;SDS011;9696;53.686;10.094;2022-07-29T12:03:30;2.85;;;0.85;;
19127;SDS011;9696;53.686;10.094;2022-07-29T12:06:01;6.07;;;0.90;;
19127;SDS011;9696;53.686;10.094;2022-07-29T12:08:38;1.95;;;0.70;;
19127;SDS011;9696;53.686;10.094;2022-07-29T12:11:14;4.53;;;0.90;;
19127;SDS011;9696;53.686;10.094;2022-07-29T12:13:47;2.75;;;0.80;;
19127;SDS011;9696;53.686;10.094;2022-07-29T12:16:15;5.80;;;0.90;;
19127;SDS011;9696;53.686;10.094;2022-07-29T12:18:55;5.15;;;0.73;;
19127;SDS011;9696;53.686;10.094;2022-07-29T12:21:24;8.85;;;1.20;;
19127;SDS011;9696;53.686;10.094;2022-07-29T12:23:56;4.38;;;0.70;;
19127;SDS011;9696;53.686;10.094;2022-07-29T12:26:34;12.10;;;0.98;;
19127;SDS011;9696;53.686;10.094;2022-07-29T12:29:06;4.35;;;1.08;;
19127;SDS011;9696;53.686;10.094;2022-07-29T12:31:45;4.50;;;0.98;;
19127;SDS011;9696;53.686;10.094;2022-07-29T12:34:15;3.35;;;1.10;;
19127;SDS011;9696;53.686;10.094;2022-07-29T12:36:43;5.78;;;1.13;;
19127;SDS011;9696;53.686;10.094;2022-07-29T12:39:14;6.78;;;1.23;;
19127;SDS011;9696;53.686;10.094;2022-07-29T12:41:44;3.90;;;1.20;;
19127;SDS011;9696;53.686;10.094;2022-07-29T12:44:13;8.60;;;0.90;;
19127;SDS011;9696;53.686;10.094;2022-07-29T12:46:41;11.75;;;1.17;;
19127;SDS011;9696;53.686;10.094;2022-07-29T12:49:20;4.75;;;1.00;;
19127;SDS011;9696;53.686;10.094;2022-07-29T12:51:49;6.80;;;1.00;;
19127;SDS011;9696;53.686;10.094;2022-07-29T12:54:19;5.68;;;1.20;;
19127;SDS011;9696;53.686;10.094;2022-07-29T12:56:57;8.73;;;1.00;;
19127;SDS011;9696;53.686;10.094;2022-07-29T12:59:26;13.52;;;1.20;;
19127;SDS011;9696;53.686;10.094;2022-07-29T13:01:54;7.63;;;1.08;;
19127;SDS011;9696;53.686;10.094;2022-07-29T13:04:27;2.42;;;1.00;;
19127;SDS011;9696;53.686;10.094;2022-07-29T13:06:59;2.80;;;1.10;;
19127;SDS011;9696;53.686;10.094;2022-07-29T13:09:50;8.98;;;1.00;;
19127;SDS011;9696;53.686;10.094;2022-07-29T13:12:19;3.30;;;1.08;;
19127;SDS011;9696;53.686;10.094;2022-07-29T13:14:49;6.10;;;1.17;;
19127;SDS011;9696;53.686;10.094;2022-07-29T13:17:18;5.90;;;1.25;;
19127;SDS011;9696;53.686;10.094;2022-07-29T13:19:49;10.27;;;1.20;;
19127;SDS011;9696;53.686;10.094;2022-07-29T13:22:19;7.85;;;1.30;;
19127;SDS011;9696;53.686;10.094;2022-07-29T13:24:49;7.10;;;1.45;;
19127;SDS011;9696;53.686;10.094;2022-07-29T13:27:20;10.70;;;1.02;;
19127;SDS011;9696;53.686;10.094;2022-07-29T13:29:49;11.23;;;1.27;;
19127;SDS011;9696;53.686;10.094;2022-07-29T13:32:18;6.43;;;0.90;;
19127;SDS011;9696;53.686;10.094;2022-07-29T13:34:53;6.35;;;1.10;;
19127;SDS011;9696;53.686;10.094;2022-07-29T13:37:23;7.18;;;1.10;;
19127;SDS011;9696;53.686;10.094;2022-07-29T13:39:57;5.80;;;1.08;;
19127;SDS011;9696;53.686;10.094;2022-07-29T13:42:25;10.98;;;1.25;;
19127;SDS011;9696;53.686;10.094;2022-07-29T13:44:54;2.03;;;1.02;;
19127;SDS011;9696;53.686;10.094;2022-07-29T13:47:22;9.25;;;1.23;;
19127;SDS011;9696;53.686;10.094;2022-07-29T13:49:58;4.05;;;1.05;;
19127;SDS011;9696;53.686;10.094;2022-07-29T13:52:26;6.60;;;1.15;;
19127;SDS011;9696;53.686;10.094;2022-07-29T13:54:56;11.90;;;1.10;;
19127;SDS011;9696;53.686;10.094;2022-07-29T13:57:25;3.00;;;0.90;;
19127;SDS011;9696;53.686;10.094;2022-07-29T13:59:53;4.28;;;1.00;;
19127;SDS011;9696;53.686;10.094;2022-07-29T14:02:22;2.88;;;0.98;;
19127;SDS011;9696;53.686;10.094;2022-07-29T14:04:51;5.05;;;1.10;;
19127;SDS011;9696;53.686;10.094;2022-07-29T14:07:20;3.28;;;1.00;;
19127;SDS011;9696;53.686;10.094;2022-07-29T14:09:49;5.18;;;1.52;;
19127;SDS011;9696;53.686;10.094;2022-07-29T14:12:19;6.03;;;0.98;;
19127;SDS011;9696;53.686;10.094;2022-07-29T14:14:48;5.00;;;0.93;;
19127;SDS011;9696;53.686;10.094;2022-07-29T14:17:17;5.55;;;0.95;;
19127;SDS011;9696;53.686;10.094;2022-07-29T14:19:45;5.13;;;1.27;;
19127;SDS011;9696;53.686;10.094;2022-07-29T14:22:14;5.35;;;1.10;;
19127;SDS011;9696;53.686;10.094;2022-07-29T14:24:47;9.93;;;1.00;;
19127;SDS011;9696;53.686;10.094;2022-07-29T14:27:16;12.85;;;1.20;;
19127;SDS011;9696;53.686;10.094;2022-07-29T14:30:03;3.90;;;0.80;;
19127;SDS011;9696;53.686;10.094;2022-07-29T14:32:33;9.85;;;1.05;;
19127;SDS011;9696;53.686;10.094;2022-07-29T14:35:01;7.68;;;0.90;;
19127;SDS011;9696;53.686;10.094;2022-07-29T14:37:30;2.08;;;0.80;;
19127;SDS011;9696;53.686;10.094;2022-07-29T14:40:06;7.18;;;1.02;;
19127;SDS011;9696;53.686;10.094;2022-07-29T14:42:36;4.95;;;1.05;;
19127;SDS011;9696;53.686;10.094;2022-07-29T14:45:06;6.30;;;1.20;;
19127;SDS011;9696;53.686;10.094;2022-07-29T14:47:36;2.83;;;1.08;;
19127;SDS011;9696;53.686;10.094;2022-07-29T14:50:05;3.50;;;1.00;;
19127;SDS011;9696;53.686;10.094;2022-07-29T14:52:34;3.22;;;0.93;;
19127;SDS011;9696;53.686;10.094;2022-07-29T14:55:03;7.18;;;1.02;;
19127;SDS011;9696;53.686;10.094;2022-07-29T14:57:46;23.27;;;2.00;;
19127;SDS011;9696;53.686;10.094;2022-07-29T15:00:16;5.80;;;1.20;;
19127;SDS011;9696;53.686;10.094;2022-07-29T15:02:45;7.13;;;1.30;;
19127;SDS011;9696;53.686;10.094;2022-07-29T15:05:29;4.97;;;1.00;;
19127;SDS011;9696;53.686;10.094;2022-07-29T15:07:58;3.45;;;0.90;;
19127;SDS011;9696;53.686;10.094;2022-07-29T15:10:26;4.78;;;1.30;;
19127;SDS011;9696;53.686;10.094;2022-07-29T15:12:56;10.25;;;1.10;;
19127;SDS011;9696;53.686;10.094;2022-07-29T15:15:25;3.20;;;0.93;;
19127;SDS011;9696;53.686;10.094;2022-07-29T15:17:54;7.97;;;1.00;;
19127;SDS011;9696;53.686;10.094;2022-07-29T15:20:22;3.63;;;1.00;;
19127;SDS011;9696;53.686;10.094;2022-07-29T15:22:53;4.75;;;1.10;;
19127;SDS011;9696;53.686;10.094;2022-07-29T15:25:23;5.72;;;1.20;;
19127;SDS011;9696;53.686;10.094;2022-07-29T15:27:53;2.78;;;1.00;;